首页
METAR-TAF:

METAR-TAF

机场 :

Alpine-Casparis Municipal Airport

Alpine, 得克萨斯州, 美国

纬度: 30-23-03N, 经度: 103-41-00W, 海拔: 1376米

当前天气观测

该预报发布于39分钟前的00:15 UTC
风速9节,风向西
温度 35°C
湿度 4%
气压 1014 hPa
能見度: 16.1公里
天空无云

METAR: KE38 210015Z AUTO 26009KT 10SM CLR 35/M12 A2994 RMK AO2 T03491121

时间: 19:54 (00:54 UTC)


TAF: 丢失

超过4000个机场的气象观测和天气预报(METAR&TAF报告)。

可查询的气象台以黄色和红色小点在地图上表示。

将鼠标移到小点上方,可查看气象台名称。

然后点击查看天气观测和预报。

如需切换地图:点击带黑十字的绿色按钮放大地图;点击带横线的绿色按钮缩小地图;或者点击绿色箭头查看邻近地区的地图。


METAR-TAF: